METAR Data
IDs: Format: Raw Decoded Include TAF

Data at: 1436 UTC 09 Dec 2019

EBBR 091420Z 32024G36KT 9999 FEW008 SCT013TCU BKN020 07/05 Q1005 RERA TEMPO 27025G40KT 4000 SHRA BKN012TCU